Time;durP1;ratioP1;P1;durP2;ratioP2;P2;SDS_P1;SDS_P2;PMS_P1;PMS_P2;Temp;Humidity;BMP_temperature;BMP_pressure;BME280_temperature;BME280_humidity;BME280_pressure;Samples;Min_cycle;Max_cycle;Signal;HPM_P1;HPM_P2
2022/05/07 00:01:48;;;;;;;7.17;3.20;;;;;;;8.70;46.09;100991.44;1720608;83;21096;-71
2022/05/07 00:04:15;;;;;;;12.55;3.83;;;;;;;8.67;46.44;100991.47;1720445;83;21132;-70
2022/05/07 00:06:42;;;;;;;7.20;3.47;;;;;;;8.60;46.72;100988.06;1720787;83;21045;-71
2022/05/07 00:09:09;;;;;;;8.45;3.77;;;;;;;8.56;46.80;100993.82;1720583;83;21085;-72
2022/05/07 00:11:36;;;;;;;6.67;3.90;;;;;;;8.57;46.23;100996.00;1720897;83;21053;-70
2022/05/07 00:14:04;;;;;;;5.97;3.47;;;;;;;8.58;46.31;100997.30;1720936;83;21038;-72
2022/05/07 00:19:15;;;;;;;13.32;4.15;;;;;;;8.55;46.07;100985.50;1720585;83;21093;-70
2022/05/07 00:21:41;;;;;;;10.30;4.33;;;;;;;8.58;46.50;100989.84;1720387;83;21060;-70
2022/05/07 00:24:08;;;;;;;6.95;3.60;;;;;;;8.56;46.33;100987.26;1720309;83;21081;-70
2022/05/07 00:26:35;;;;;;;6.42;3.87;;;;;;;8.54;46.82;100985.09;1720479;83;21089;-70
2022/05/07 00:29:02;;;;;;;9.43;3.90;;;;;;;8.50;46.66;100989.97;1720643;83;21239;-71
2022/05/07 00:31:29;;;;;;;7.83;3.77;;;;;;;8.47;47.00;100991.33;1725950;83;21010;-70
2022/05/07 00:33:56;;;;;;;10.30;3.45;;;;;;;8.44;46.94;100984.79;1725913;82;21061;-70
2022/05/07 00:36:23;;;;;;;8.50;3.52;;;;;;;8.44;47.37;100983.48;1725967;82;21612;-71
2022/05/07 00:38:50;;;;;;;8.95;4.10;;;;;;;8.39;47.61;100986.59;1725862;82;21037;-70
2022/05/07 00:41:17;;;;;;;12.63;4.35;;;;;;;8.31;47.90;100985.39;1725915;83;21230;-72
2022/05/07 00:43:45;;;;;;;13.00;4.10;;;;;;;8.29;47.85;100985.00;1725921;81;21553;-70
2022/05/07 00:46:12;;;;;;;9.20;4.12;;;;;;;8.28;48.38;100983.25;1709837;83;21077;-71
2022/05/07 00:48:46;;;;;;;6.67;3.85;;;;;;;8.23;48.50;100981.14;1725864;83;21057;-71
2022/05/07 00:53:59;;;;;;;13.38;4.35;;;;;;;8.18;48.55;100978.12;1725990;83;21154;-70
2022/05/07 00:56:26;;;;;;;8.15;4.05;;;;;;;8.17;48.32;100979.48;1725845;81;21017;-71
2022/05/07 00:59:00;;;;;;;11.20;4.28;;;;;;;8.15;48.77;100976.86;1725860;83;21622;-70
2022/05/07 01:01:28;;;;;;;8.43;4.05;;;;;;;8.11;48.78;100980.41;1726288;83;21034;-70
2022/05/07 01:03:56;;;;;;;8.18;4.10;;;;;;;8.05;48.93;100981.83;1725987;83;21092;-71
2022/05/07 01:06:24;;;;;;;7.87;3.90;;;;;;;8.00;49.12;100975.74;1725923;83;21253;-71
2022/05/07 01:08:52;;;;;;;11.08;3.60;;;;;;;7.94;49.25;100966.66;1721198;82;21041;-71
2022/05/07 01:11:27;;;;;;;8.93;4.10;;;;;;;7.89;49.13;100973.70;1713112;82;21034;-70
2022/05/07 01:13:56;;;;;;;7.92;3.95;;;;;;;7.82;49.44;100970.73;1713150;82;21981;-71
2022/05/07 01:16:24;;;;;;;5.42;3.30;;;;;;;7.78;49.56;100976.02;1713046;83;22069;-71
2022/05/07 01:18:51;;;;;;;7.20;3.95;;;;;;;7.77;50.01;100972.95;1713323;83;21320;-71
2022/05/07 01:21:18;;;;;;;8.18;3.72;;;;;;;7.74;50.30;100973.45;1713095;83;21014;-72
2022/05/07 01:23:51;;;;;;;9.60;4.17;;;;;;;7.70;50.07;100973.06;1713159;82;21011;-71
2022/05/07 01:26:21;;;;;;;15.55;4.65;;;;;;;7.65;50.08;100973.11;1712798;83;21058;-72
2022/05/07 01:28:45;;;;;;;8.25;3.27;;;;;;;7.62;50.69;100965.30;1712912;83;21566;-70
2022/05/07 01:31:12;;;;;;;7.50;4.00;;;;;;;7.60;50.84;100972.30;1713002;82;21954;-70
2022/05/07 01:33:40;;;;;;;9.65;4.75;;;;;;;7.58;51.01;100971.45;1712938;83;21049;-71
2022/05/07 01:36:11;;;;;;;11.93;4.30;;;;;;;7.58;51.50;100971.91;1713056;83;21058;-71
2022/05/07 01:38:38;;;;;;;14.95;5.00;;;;;;;7.62;50.82;100972.30;1712975;82;21061;-71
2022/05/07 01:41:04;;;;;;;11.70;5.12;;;;;;;7.71;50.53;100958.63;1713221;82;21081;-70
2022/05/07 01:43:36;;;;;;;17.65;5.67;;;;;;;7.88;50.27;100964.11;1712966;82;21789;-70
2022/05/07 01:48:09;;;;;;;11.18;4.83;;;;;;;7.95;50.35;100959.20;1713219;83;21066;-70
2022/05/07 01:48:33;;;;;;;12.25;4.65;;;;;;;7.99;50.03;100964.84;1712923;83;21065;-70
2022/05/07 01:51:00;;;;;;;14.70;4.83;;;;;;;8.00;50.05;100958.70;1712937;82;21553;-71
2022/05/07 01:53:28;;;;;;;8.15;3.85;;;;;;;8.02;50.17;100958.23;1713044;83;21058;-71
2022/05/07 01:55:56;;;;;;;11.70;4.80;;;;;;;8.04;50.09;100963.02;1713038;82;21097;-70
2022/05/07 01:58:25;;;;;;;8.95;4.72;;;;;;;8.06;50.12;100963.01;1712692;83;21122;-71
2022/05/07 02:00:55;;;;;;;8.33;4.47;;;;;;;8.06;49.96;100963.88;1713119;83;21057;-71
2022/05/07 02:03:26;;;;;;;12.15;4.40;;;;;;;8.02;50.36;100963.48;1712913;82;21129;-70
2022/05/07 02:05:52;;;;;;;10.90;4.33;;;;;;;7.99;50.21;100960.91;1702607;83;21601;-71
2022/05/07 02:08:22;;;;;;;9.58;4.85;;;;;;;7.97;50.40;100963.99;1713142;82;21134;-71
2022/05/07 02:10:49;;;;;;;8.83;4.65;;;;;;;7.92;50.47;100965.81;1725952;82;21065;-71
2022/05/07 02:13:15;;;;;;;11.63;5.28;;;;;;;7.89;50.43;100957.96;1725993;83;21048;-70
2022/05/07 02:15:43;;;;;;;13.30;5.30;;;;;;;7.92;50.64;100961.88;1725914;82;21064;-71
2022/05/07 02:18:12;;;;;;;10.40;4.53;;;;;;;7.91;50.50;100962.75;1725857;82;21112;-72
2022/05/07 02:20:38;;;;;;;12.80;5.20;;;;;;;7.90;50.64;100967.59;1726028;82;21196;-70
2022/05/07 02:23:07;;;;;;;10.63;4.97;;;;;;;7.88;50.75;100968.05;1725916;82;21053;-70
2022/05/07 02:25:33;;;;;;;12.43;5.53;;;;;;;7.84;50.71;100967.20;1726015;82;21046;-71
2022/05/07 02:28:03;;;;;;;10.70;5.28;;;;;;;7.85;50.97;100967.64;1725696;82;21069;-71
2022/05/07 02:30:30;;;;;;;10.28;4.62;;;;;;;7.87;50.92;100973.74;1726185;83;21357;-70
2022/05/07 02:33:00;;;;;;;10.45;4.67;;;;;;;7.87;50.90;100970.26;1725947;82;21970;-70
2022/05/07 02:35:27;;;;;;;16.02;5.47;;;;;;;7.86;51.12;100967.19;1725893;83;21537;-70
2022/05/07 02:37:54;;;;;;;9.03;4.90;;;;;;;7.89;51.27;100965.83;1725855;83;21561;-72
2022/05/07 02:40:22;;;;;;;9.05;4.90;;;;;;;7.90;51.24;100967.13;1726231;83;21045;-71
2022/05/07 02:42:49;;;;;;;11.55;5.22;;;;;;;7.92;51.13;100974.55;1725827;81;21077;-71
2022/05/07 02:45:17;;;;;;;13.70;4.92;;;;;;;7.96;51.09;100971.45;1725921;83;21265;-73
2022/05/07 02:47:49;;;;;;;11.05;4.90;;;;;;;7.99;51.13;100970.09;1725602;82;22248;-70
2022/05/07 02:50:18;;;;;;;13.05;6.37;;;;;;;8.00;51.23;100969.19;1725854;82;21006;-71
2022/05/07 02:52:44;;;;;;;11.18;5.60;;;;;;;8.03;51.09;100967.86;1725843;83;22048;-72
2022/05/07 02:55:12;;;;;;;12.78;5.37;;;;;;;8.04;50.95;100968.27;1725962;81;21030;-71
2022/05/07 02:57:42;;;;;;;10.93;5.05;;;;;;;8.08;51.09;100969.11;1725764;83;21245;-72
2022/05/07 03:00:12;;;;;;;11.25;5.33;;;;;;;8.10;50.94;100962.95;1725871;83;21060;-70
2022/05/07 03:02:38;;;;;;;15.78;5.60;;;;;;;8.13;50.93;100968.14;1725894;83;21041;-71
2022/05/07 03:05:06;;;;;;;15.68;5.80;;;;;;;8.14;51.08;100970.31;1725487;83;21018;-69
2022/05/07 03:07:35;;;;;;;14.58;6.00;;;;;;;8.17;50.96;100970.30;1725921;83;21215;-71
2022/05/07 03:10:06;;;;;;;14.35;5.30;;;;;;;8.18;50.98;100972.87;1725240;82;21267;-71
2022/05/07 03:12:33;;;;;;;15.05;5.72;;;;;;;8.20;50.92;100978.97;1725833;82;21735;-69
2022/05/07 03:15:01;;;;;;;11.03;5.53;;;;;;;8.23;51.09;100975.89;1686251;83;21052;-70
2022/05/07 03:17:34;;;;;;;14.73;5.58;;;;;;;8.26;50.72;100975.84;1726021;83;21577;-70
2022/05/07 03:20:06;;;;;;;13.10;4.47;;;;;;;8.29;50.70;100979.75;1725645;82;21057;-71
2022/05/07 03:22:33;;;;;;;7.25;4.45;;;;;;;8.33;50.61;100977.52;1725839;82;21414;-73
2022/05/07 03:25:02;;;;;;;11.83;4.95;;;;;;;8.37;50.63;100971.30;1725612;83;20999;-72
2022/05/07 03:27:32;;;;;;;15.13;5.50;;;;;;;8.40;50.43;100976.11;1725850;83;21455;-71
2022/05/07 03:30:02;;;;;;;13.15;6.00;;;;;;;8.44;50.54;100969.50;1725732;83;21568;-71
2022/05/07 03:32:31;;;;;;;14.47;5.87;;;;;;;8.49;50.49;100971.18;1686727;83;21141;-71
2022/05/07 03:34:58;;;;;;;14.40;5.72;;;;;;;8.56;50.33;100972.81;1725545;83;21276;-70
2022/05/07 03:37:26;;;;;;;13.32;5.62;;;;;;;8.68;50.20;100973.52;1725809;83;21041;-71
2022/05/07 03:39:57;;;;;;;15.90;6.10;;;;;;;8.73;50.09;100966.43;1725797;83;21108;-71
2022/05/07 03:42:25;;;;;;;18.27;5.90;;;;;;;8.75;49.89;100973.39;1726067;81;21522;-71
2022/05/07 03:44:52;;;;;;;18.23;6.10;;;;;;;8.78;50.05;100977.72;1725877;83;21050;-70
2022/05/07 03:47:18;;;;;;;12.85;5.75;;;;;;;8.78;49.93;100973.33;1726162;83;21792;-71
2022/05/07 03:49:46;;;;;;;15.48;7.25;;;;;;;8.84;49.87;100980.26;1725963;83;21005;-70
2022/05/07 03:54:58;;;;;;;11.25;5.05;;;;;;;9.03;49.61;100980.36;1725879;83;21026;-70
2022/05/07 03:57:25;;;;;;;14.73;5.67;;;;;;;9.09;49.60;100982.45;1725859;81;21117;-71
2022/05/07 03:59:52;;;;;;;15.05;5.87;;;;;;;9.08;49.65;100978.11;1726256;82;21245;-71
2022/05/07 04:02:19;;;;;;;11.57;5.75;;;;;;;9.07;49.61;100982.95;1725871;83;21138;-70
2022/05/07 04:04:51;;;;;;;14.28;6.00;;;;;;;9.09;49.59;100982.45;1725790;82;21517;-70
2022/05/07 04:07:18;;;;;;;14.95;6.42;;;;;;;9.09;49.60;100989.02;1725971;83;21046;-70
2022/05/07 04:09:54;;;;;;;14.70;6.45;;;;;;;9.08;49.75;100991.25;1726035;82;21053;-71
2022/05/07 04:12:20;;;;;;;12.33;6.40;;;;;;;9.08;49.71;100989.48;1726097;82;21241;-71
2022/05/07 04:14:48;;;;;;;11.38;6.08;;;;;;;9.14;49.70;100993.78;1725923;83;21022;-71
2022/05/07 04:17:14;;;;;;;10.63;5.50;;;;;;;9.31;49.59;100989.07;1725950;83;21120;-71
2022/05/07 04:19:41;;;;;;;17.45;6.37;;;;;;;9.50;49.20;100990.05;1725695;83;21056;-72
2022/05/07 04:22:08;;;;;;;18.05;6.78;;;;;;;9.61;48.82;100990.72;1726333;82;21218;-70
2022/05/07 04:24:38;;;;;;;14.07;5.90;;;;;;;9.69;48.91;100994.08;1725832;82;21343;-71
2022/05/07 04:27:05;;;;;;;16.15;6.75;;;;;;;9.73;48.65;100989.60;1725889;83;21573;-72
2022/05/07 04:29:38;;;;;;;12.53;5.92;;;;;;;9.74;48.82;100989.58;1725757;83;21355;-71
2022/05/07 04:32:08;;;;;;;14.60;6.37;;;;;;;9.91;48.28;100989.69;1722829;82;21056;-71
2022/05/07 04:34:35;;;;;;;18.52;6.03;;;;;;;10.20;48.00;100984.67;1720380;83;21088;-70
2022/05/07 04:37:04;;;;;;;13.22;5.70;;;;;;;10.53;47.55;100982.21;1720515;83;21137;-71
2022/05/07 04:39:34;;;;;;;15.38;6.35;;;;;;;10.88;46.39;100987.08;1720334;82;21155;-72
2022/05/07 04:42:05;;;;;;;14.63;5.83;;;;;;;11.18;46.01;100980.63;1720587;82;21581;-71
2022/05/07 04:44:46;;;;;;;;;;;;;;;11.54;45.09;100979.64;1722953;83;21116;-71
2022/05/07 04:47:14;;;;;;;15.40;6.15;;;;;;;11.80;44.14;100978.08;1719460;83;20471;-71
2022/05/07 04:49:42;;;;;;;17.42;6.87;;;;;;;12.12;43.38;100976.28;1720496;83;21242;-72
2022/05/07 04:52:10;;;;;;;14.18;6.15;;;;;;;12.37;42.64;100974.62;1720375;83;21624;-71
2022/05/07 04:54:42;;;;;;;14.63;5.90;;;;;;;12.54;42.09;100978.54;1720624;83;21104;-71
2022/05/07 04:57:09;;;;;;;12.28;5.53;;;;;;;12.64;42.04;100976.45;1720423;82;21084;-72
2022/05/07 04:59:38;;;;;;;13.62;6.10;;;;;;;12.60;41.90;100973.89;1719643;83;21112;-73
2022/05/07 05:02:07;;;;;;;19.30;6.30;;;;;;;12.46;42.33;100981.86;1720246;83;21149;-71
2022/05/07 05:04:35;;;;;;;9.35;5.85;;;;;;;12.39;42.67;100978.55;1720280;83;21061;-71
2022/05/07 05:07:05;;;;;;;15.08;5.70;;;;;;;12.71;42.52;100976.20;1694898;83;21069;-71
2022/05/07 05:09:34;;;;;;;11.85;5.85;;;;;;;13.16;42.06;100981.35;1718888;83;21656;-70
2022/05/07 05:12:09;;;;;;;12.95;5.35;;;;;;;13.52;41.23;100975.70;1706924;83;21049;-72
2022/05/07 05:17:28;;;;;;;12.80;5.78;;;;;;;13.67;40.95;100974.31;1706423;83;21120;-71
2022/05/07 05:19:55;;;;;;;14.25;5.75;;;;;;;13.51;41.52;100981.47;1707379;84;21053;-71
2022/05/07 05:22:22;;;;;;;15.63;5.83;;;;;;;13.50;41.71;100983.69;1707362;84;21073;-71
2022/05/07 05:24:54;;;;;;;13.88;6.10;;;;;;;13.63;41.86;100981.02;1707211;84;21128;-72
2022/05/07 05:27:21;;;;;;;15.10;5.83;;;;;;;13.87;41.47;100982.82;1707212;84;21767;-72
2022/05/07 05:29:48;;;;;;;17.87;6.25;;;;;;;14.13;41.13;100974.77;1707055;84;21601;-71
2022/05/07 05:32:19;;;;;;;18.15;7.03;;;;;;;14.52;40.52;100970.63;1710426;83;21057;-72
2022/05/07 05:34:52;;;;;;;10.60;5.65;;;;;;;14.99;40.06;100971.81;1712962;83;21101;-72
2022/05/07 05:37:25;;;;;;;11.03;5.60;;;;;;;15.37;38.94;100967.53;1703047;83;21550;-73
2022/05/07 05:39:53;;;;;;;12.63;5.47;;;;;;;15.70;38.05;100966.52;1680437;83;21200;-73
2022/05/07 05:42:21;;;;;;;10.20;5.22;;;;;;;16.06;37.47;100967.11;1712894;83;21546;-71
2022/05/07 05:44:48;;;;;;;14.93;4.92;;;;;;;16.45;36.33;100969.27;1713101;83;21010;-72
2022/05/07 05:47:17;;;;;;;11.43;5.25;;;;;;;16.79;35.51;100968.52;1712952;83;21025;-73
2022/05/07 05:49:44;;;;;;;10.45;5.03;;;;;;;16.83;34.52;100965.24;1713058;83;21029;-70
2022/05/07 05:52:10;;;;;;;12.60;4.62;;;;;;;16.77;34.48;100967.69;1713116;82;21770;-73
2022/05/07 05:54:39;;;;;;;11.78;5.40;;;;;;;16.73;34.14;100973.64;1713010;82;21202;-73
2022/05/07 05:57:07;;;;;;;15.48;4.78;;;;;;;16.63;33.86;100971.03;1713097;83;21086;-71
2022/05/07 05:59:35;;;;;;;9.45;4.58;;;;;;;16.61;34.19;100972.05;1713115;83;21010;-72
2022/05/07 06:02:04;;;;;;;9.83;5.05;;;;;;;16.66;34.16;100976.69;1713065;82;21057;-72
2022/05/07 06:04:33;;;;;;;11.28;4.78;;;;;;;16.74;34.07;100982.00;1700975;83;26676;-73
2022/05/07 06:07:05;;;;;;;13.50;5.53;;;;;;;16.80;33.71;100980.04;1712912;82;21069;-74
2022/05/07 06:09:32;;;;;;;11.15;4.97;;;;;;;16.83;33.49;100979.40;1713633;83;21057;-72
2022/05/07 06:12:00;;;;;;;16.35;5.17;;;;;;;17.01;33.33;100978.95;1725456;82;21061;-71
2022/05/07 06:14:29;;;;;;;11.05;4.90;;;;;;;17.19;33.25;100977.17;1726058;83;21088;-72
2022/05/07 06:16:57;;;;;;;14.20;4.97;;;;;;;17.40;32.88;100977.38;1725967;82;21307;-72
2022/05/07 06:19:28;;;;;;;11.50;4.72;;;;;;;17.58;31.78;100974.23;1725968;83;21541;-71
2022/05/07 06:21:57;;;;;;;14.18;5.08;;;;;;;17.58;31.71;100973.38;1709363;83;21101;-71
2022/05/07 06:30:04;;;;;;;14.05;4.87;;;;;;;17.92;32.12;100975.58;1725556;82;21255;-72
2022/05/07 06:32:36;;;;;;;12.13;5.28;;;;;;;18.19;31.07;100972.73;1722389;82;21143;-70
2022/05/07 06:35:06;;;;;;;14.93;5.20;;;;;;;18.43;31.03;100977.66;1720223;83;21030;-71
2022/05/07 06:37:37;;;;;;;16.07;5.17;;;;;;;18.56;30.72;100974.66;1720767;83;21068;-70
2022/05/07 06:40:05;;;;;;;14.68;5.35;;;;;;;18.70;30.67;100985.02;1693951;83;21096;-71
2022/05/07 06:42:35;;;;;;;14.43;5.75;;;;;;;18.86;30.36;100979.22;1720526;82;21080;-73
2022/05/07 06:45:05;;;;;;;11.28;4.83;;;;;;;18.98;29.77;100978.52;1719123;83;21636;-72
2022/05/07 06:47:33;;;;;;;14.03;6.10;;;;;;;19.17;29.42;100971.61;1720703;83;21080;-73
2022/05/07 06:50:01;;;;;;;11.97;4.65;;;;;;;19.10;29.39;100975.59;1720238;83;21679;-72
2022/05/07 06:52:29;;;;;;;11.40;4.95;;;;;;;19.10;29.96;100969.41;1720578;83;21032;-72
2022/05/07 06:54:56;;;;;;;14.40;5.53;;;;;;;19.21;29.24;100977.16;1720258;82;21148;-71
2022/05/07 06:57:25;;;;;;;16.35;4.95;;;;;;;19.22;29.50;100964.17;1720596;83;21624;-73
2022/05/07 06:59:53;;;;;;;10.35;4.42;;;;;;;19.39;29.16;100965.82;1720622;83;21632;-71
2022/05/07 07:02:22;;;;;;;13.72;5.25;;;;;;;19.34;28.86;100962.58;1720338;83;21108;-71
2022/05/07 07:04:49;;;;;;;13.93;4.67;;;;;;;19.39;29.24;100971.16;1720368;83;21136;-72
2022/05/07 07:07:25;;;;;;;14.83;5.45;;;;;;;19.46;29.26;100961.85;1720547;83;21223;-71
2022/05/07 07:09:55;;;;;;;12.82;5.12;;;;;;;19.64;29.06;100961.66;1720537;83;21088;-71
2022/05/07 07:12:23;;;;;;;17.17;5.17;;;;;;;20.16;28.25;100953.08;1707376;83;21077;-72
2022/05/07 07:14:52;;;;;;;16.48;4.87;;;;;;;20.39;27.24;100958.77;1706937;84;21010;-71
2022/05/07 07:17:20;;;;;;;11.45;5.05;;;;;;;20.31;27.69;100956.56;1706950;84;22165;-71
2022/05/07 07:19:50;;;;;;;16.52;5.25;;;;;;;20.29;26.37;100956.69;1707082;83;21206;-74
2022/05/07 07:22:16;;;;;;;16.32;5.65;;;;;;;20.37;26.71;100952.65;1706838;83;21077;-72
2022/05/07 07:24:43;;;;;;;13.55;4.87;;;;;;;20.57;26.40;100954.91;1706838;84;21097;-71
2022/05/07 07:27:10;;;;;;;12.90;5.33;;;;;;;20.87;25.55;100948.48;1707484;83;21557;-71
2022/05/07 07:29:36;;;;;;;10.23;4.90;;;;;;;20.91;25.08;100954.87;1707201;84;21042;-71
2022/05/07 07:32:04;;;;;;;10.30;5.15;;;;;;;20.85;24.77;100952.59;1709979;83;21707;-70
2022/05/07 07:34:34;;;;;;;12.20;5.35;;;;;;;21.02;24.67;100959.48;1712984;82;21129;-72
2022/05/07 07:37:06;;;;;;;14.63;5.53;;;;;;;20.84;24.93;100952.69;1713571;83;21074;-72
2022/05/07 07:39:35;;;;;;;13.48;5.78;;;;;;;20.57;25.16;100950.91;1679428;83;21062;-73
2022/05/07 07:42:02;;;;;;;13.08;5.83;;;;;;;20.53;25.16;100954.70;1713418;83;21057;-71
2022/05/07 07:44:29;;;;;;;25.30;6.22;;;;;;;20.62;24.91;100954.12;1713458;83;21748;-74
2022/05/07 07:49:40;;;;;;;11.65;4.83;;;;;;;20.79;24.24;100952.14;1713040;83;21093;-73
2022/05/07 07:52:17;;;;;;;14.00;5.92;;;;;;;20.97;23.68;100957.59;1713227;82;21026;-73
2022/05/07 07:54:50;;;;;;;14.73;5.60;;;;;;;21.08;24.02;100953.72;1712935;82;21041;-72
2022/05/07 07:57:17;;;;;;;9.95;5.28;;;;;;;21.24;24.25;100957.55;1702944;83;21629;-72
2022/05/07 07:59:44;;;;;;;16.07;5.10;;;;;;;21.32;24.01;100953.84;1713184;82;21014;-72
2022/05/07 08:02:11;;;;;;;16.17;6.00;;;;;;;21.44;22.99;100940.14;1713201;82;21550;-72
2022/05/07 08:04:38;;;;;;;12.15;5.47;;;;;;;21.47;22.99;100947.95;1713143;83;21041;-71
2022/05/07 08:12:39;;;;;;;18.62;5.28;;;;;;;21.36;23.46;100947.80;1725262;82;21048;-71
2022/05/07 08:15:08;;;;;;;15.63;5.03;;;;;;;21.21;23.11;100946.17;1725982;83;21093;-72
2022/05/07 08:17:34;;;;;;;17.37;6.72;;;;;;;21.08;23.43;100945.69;1726254;83;21040;-73
2022/05/07 08:20:02;;;;;;;19.98;5.70;;;;;;;21.07;23.41;100944.44;1725975;82;21293;-72
2022/05/07 08:22:30;;;;;;;15.78;5.85;;;;;;;21.10;23.00;100942.42;1725985;83;21237;-71
2022/05/07 08:24:57;;;;;;;12.55;6.00;;;;;;;21.08;22.90;100936.31;1726134;82;21117;-72
2022/05/07 08:27:23;;;;;;;11.90;5.87;;;;;;;21.06;23.11;100945.41;1726127;83;21100;-73
2022/05/07 08:29:50;;;;;;;14.13;4.67;;;;;;;20.92;23.28;100941.00;1726403;83;21057;-72
2022/05/07 08:32:16;;;;;;;15.78;5.75;;;;;;;20.74;23.49;100946.61;1723210;83;21025;-72
2022/05/07 08:34:42;;;;;;;11.65;5.50;;;;;;;20.63;23.58;100943.78;1720649;83;21392;-73
2022/05/07 08:37:09;;;;;;;11.88;5.25;;;;;;;20.71;23.79;100942.81;1720607;83;21096;-72
2022/05/07 08:39:36;;;;;;;9.23;4.83;;;;;;;20.78;23.22;100941.08;1720685;82;21025;-72
2022/05/07 08:42:05;;;;;;;11.28;5.67;;;;;;;20.89;23.02;100949.21;1720405;83;21072;-72
2022/05/07 08:44:32;;;;;;;10.10;5.37;;;;;;;21.07;23.12;100942.64;1720776;83;21049;-74
2022/05/07 08:47:00;;;;;;;12.95;4.62;;;;;;;21.28;23.30;100936.75;1720479;82;21624;-71
2022/05/07 08:49:28;;;;;;;12.85;4.42;;;;;;;21.30;22.47;100945.54;1720369;83;21641;-71
2022/05/07 08:51:56;;;;;;;13.08;5.10;;;;;;;21.26;22.57;100938.70;1720531;83;21076;-72
2022/05/07 08:54:22;;;;;;;9.15;4.62;;;;;;;21.23;22.46;100933.53;1720286;83;21052;-72
2022/05/07 08:56:49;;;;;;;17.12;5.60;;;;;;;21.38;22.76;100929.80;1720604;82;21109;-71
2022/05/07 08:59:16;;;;;;;12.33;5.37;;;;;;;21.52;22.88;100929.72;1720706;83;21747;-72
2022/05/07 09:01:43;;;;;;;15.72;7.72;;;;;;;21.71;22.40;100932.44;1720358;82;21120;-72
2022/05/07 09:04:10;;;;;;;12.50;5.12;;;;;;;21.74;22.48;100926.85;1720634;83;21073;-73
2022/05/07 09:06:38;;;;;;;11.70;4.97;;;;;;;21.67;22.74;100918.87;1720512;83;21565;-73
2022/05/07 09:09:06;;;;;;;16.95;6.40;;;;;;;21.67;22.85;100922.89;1720431;83;21168;-71
2022/05/07 09:11:42;;;;;;;7.72;4.45;;;;;;;21.74;22.65;100925.51;1720472;83;22183;-73
2022/05/07 09:14:09;;;;;;;8.65;4.30;;;;;;;21.77;22.30;100917.27;1720390;83;21628;-71
2022/05/07 09:16:42;;;;;;;11.93;4.15;;;;;;;21.98;21.32;100917.55;1720520;83;21060;-72
2022/05/07 09:19:29;;;;;;;11.43;4.95;;;;;;;22.13;21.62;100910.19;1719966;83;21069;-73
2022/05/07 09:22:09;;;;;;;8.30;3.52;;;;;;;22.26;21.25;100913.73;1720107;83;21140;-72
2022/05/07 09:24:37;;;;;;;28.23;11.50;;;;;;;22.32;21.32;100915.97;1720366;82;22396;-72
2022/05/07 09:27:05;;;;;;;6.42;4.28;;;;;;;22.35;21.63;100907.68;1720512;83;21092;-73
2022/05/07 09:29:33;;;;;;;13.90;4.92;;;;;;;22.36;21.03;100912.09;1720231;83;21112;-71
2022/05/07 09:32:16;;;;;;;9.73;4.00;;;;;;;22.35;21.00;100921.09;1722713;83;21585;-72
2022/05/07 09:37:38;;;;;;;7.00;4.47;;;;;;;22.87;20.24;100908.75;1725950;82;21313;-72
2022/05/07 09:40:10;;;;;;;8.73;4.80;;;;;;;22.82;20.43;100907.75;1726098;83;21033;-73
2022/05/07 09:42:38;;;;;;;10.63;5.85;;;;;;;22.73;20.30;100907.99;1709682;83;21108;-72
2022/05/07 09:45:07;;;;;;;13.18;5.55;;;;;;;22.70;20.65;100906.86;1726224;82;21038;-72
2022/05/07 09:47:34;;;;;;;10.48;5.53;;;;;;;22.72;20.50;100903.58;1726210;82;21529;-72
2022/05/07 09:50:20;;;;;;;7.50;4.65;;;;;;;22.93;20.14;100901.57;1726116;83;21241;-72
2022/05/07 09:58:19;;;;;;;15.93;4.78;;;;;;;23.78;19.25;100886.45;1726126;82;21128;-71
2022/05/07 10:01:03;;;;;;;7.95;4.33;;;;;;;23.42;19.55;100889.71;1726360;83;21033;-72
2022/05/07 10:04:12;;;;;;;10.43;4.10;;;;;;;23.29;19.21;100887.65;1725928;82;21894;-72
2022/05/07 10:07:15;;;;;;;8.55;4.03;;;;;;;23.45;19.62;100881.42;1725870;83;21065;-73
2022/05/07 10:10:19;;;;;;;8.98;4.35;;;;;;;23.44;19.09;100882.39;1725962;82;21653;-72
2022/05/07 10:12:47;;;;;;;8.30;5.05;;;;;;;23.69;19.66;100875.91;1716775;82;20998;-73
2022/05/07 10:15:23;;;;;;;9.70;3.90;;;;;;;24.13;19.65;100864.73;1712973;82;21049;-71
2022/05/07 10:18:07;;;;;;;9.48;4.55;;;;;;;24.22;18.75;100866.66;1702846;83;21280;-71
2022/05/07 10:20:40;;;;;;;11.90;4.25;;;;;;;24.22;18.41;100872.55;1712984;83;21028;-71
2022/05/07 10:23:10;;;;;;;7.85;4.40;;;;;;;24.05;19.28;100873.45;1712948;83;21061;-71
2022/05/07 10:25:37;;;;;;;9.13;4.10;;;;;;;24.34;18.65;100865.28;1713247;82;21077;-71
2022/05/07 10:28:15;;;;;;;10.60;4.20;;;;;;;24.90;18.78;100867.26;1713108;82;21116;-73
2022/05/07 10:30:57;;;;;;;9.60;3.85;;;;;;;24.96;18.03;100855.59;1713021;83;21130;-71
2022/05/07 10:33:24;;;;;;;10.90;4.60;;;;;;;24.88;17.61;100843.63;1707331;83;21057;-72
2022/05/07 10:35:56;;;;;;;9.43;4.70;;;;;;;25.05;18.26;100852.09;1707046;84;21045;-71
2022/05/07 10:38:32;;;;;;;10.07;3.80;;;;;;;25.09;18.27;100845.46;1707457;82;21110;-72
2022/05/07 10:41:07;;;;;;;13.68;4.50;;;;;;;25.17;18.26;100849.70;1707256;84;21038;-71
2022/05/07 10:43:42;;;;;;;11.22;4.10;;;;;;;25.03;17.89;100851.38;1707428;84;21134;-70
2022/05/07 10:46:18;;;;;;;7.00;3.50;;;;;;;24.74;18.34;100843.97;1707091;84;21050;-72
2022/05/07 10:48:58;;;;;;;13.00;3.80;;;;;;;24.57;17.93;100851.27;1706778;83;21609;-72
2022/05/07 10:51:50;;;;;;;11.63;4.65;;;;;;;24.23;18.30;100841.98;1707050;82;28575;-73
2022/05/07 10:54:23;;;;;;;6.55;4.05;;;;;;;23.97;18.42;100836.92;1707273;84;21128;-70
2022/05/07 10:56:56;;;;;;;13.68;3.72;;;;;;;24.15;18.35;100828.30;1707196;84;21178;-72
2022/05/07 10:59:25;;;;;;;8.08;4.33;;;;;;;24.16;18.72;100830.02;1707128;84;21058;-70
2022/05/07 11:01:52;;;;;;;17.15;4.10;;;;;;;24.00;19.19;100819.67;1707237;83;21085;-71
2022/05/07 11:04:22;;;;;;;10.68;4.25;;;;;;;23.66;19.41;100828.61;1707031;84;21002;-72
2022/05/07 11:06:51;;;;;;;;;;;;;;;23.08;19.44;100830.59;1709896;84;21589;-72
2022/05/07 11:09:21;;;;;;;8.83;3.87;;;;;;;22.93;19.90;100818.31;1707886;84;21721;-72
2022/05/07 11:11:57;;;;;;;16.80;3.70;;;;;;;23.10;19.95;100811.17;1709884;83;21056;-71
2022/05/07 11:14:26;;;;;;;9.58;4.22;;;;;;;23.21;19.82;100805.81;1720524;83;21140;-72
2022/05/07 11:16:55;;;;;;;8.93;4.30;;;;;;;22.99;20.01;100817.88;1720808;83;21550;-72
2022/05/07 11:19:34;;;;;;;12.23;4.33;;;;;;;22.79;20.48;100822.92;1720721;83;21104;-72
2022/05/07 11:22:05;;;;;;;10.90;3.92;;;;;;;22.71;20.40;100816.45;1720764;83;21774;-71
2022/05/07 11:26:20;;;;;;;7.35;3.60;;;;;;;22.74;21.07;100800.95;1796703;79;23370;-72
2022/05/07 11:28:49;;;;;;;14.15;3.90;;;;;;;22.83;20.29;100808.29;1756521;81;21045;-74
2022/05/07 11:31:32;;;;;;;8.40;3.25;;;;;;;22.56;20.34;100805.90;1756404;81;21132;-73
2022/05/07 11:34:11;;;;;;;7.87;4.15;;;;;;;22.32;20.77;100799.25;1756384;81;20929;-71
2022/05/07 11:36:39;;;;;;;6.28;3.90;;;;;;;22.11;20.84;100799.47;1748373;81;21039;-72
2022/05/07 11:39:08;;;;;;;10.60;4.67;;;;;;;22.10;20.94;100793.26;1726460;82;21563;-71
2022/05/07 11:41:36;;;;;;;11.55;4.97;;;;;;;22.05;20.88;100799.45;1726691;83;20950;-70
2022/05/07 11:46:56;;;;;;;9.90;3.83;;;;;;;22.00;21.51;100790.41;1726618;83;21047;-72
2022/05/07 11:49:34;;;;;;;21.37;5.05;;;;;;;21.90;21.94;100784.03;1726696;83;21275;-70
2022/05/07 11:52:08;;;;;;;13.08;4.12;;;;;;;22.06;21.96;100770.31;1726525;81;21012;-71
2022/05/07 11:54:35;;;;;;;15.25;4.37;;;;;;;22.39;21.50;100776.34;1726626;82;21575;-71
2022/05/07 11:57:04;;;;;;;18.40;4.17;;;;;;;22.43;20.71;100764.02;1726161;83;21912;-72
2022/05/07 11:59:41;;;;;;;8.88;4.47;;;;;;;21.99;20.80;100786.50;1726160;83;21057;-71
2022/05/07 12:02:08;;;;;;;8.18;4.10;;;;;;;21.65;20.80;100773.38;1726396;82;21051;-71
2022/05/07 12:04:35;;;;;;;13.28;4.28;;;;;;;21.63;21.04;100767.31;1726624;83;21313;-72
2022/05/07 12:07:04;;;;;;;7.92;4.00;;;;;;;21.76;21.37;100773.45;1726598;82;21027;-70
2022/05/07 12:09:33;;;;;;;11.12;4.30;;;;;;;21.72;21.32;100765.29;1726636;83;22218;-71
2022/05/07 12:12:00;;;;;;;11.33;4.53;;;;;;;21.56;21.95;100754.34;1726429;83;21070;-71